| time (UTC) | temp F | wind direction | speed knots | gust knots | rain 1hr in | rain 24hr in | rain mn in | humidity % | barometer mb |
| 20260507182648 | 56 | 334 | 7.0 | 14.8 | 0.00 | 0.00 | 0.00 | 43 | 1003.9 |
| 20260507182143 | 57 | 333 | 4.3 | 8.7 | 0.00 | 0.00 | 0.00 | 42 | 1003.8 |
| 20260507181640 | 56 | 351 | 4.3 | 14.8 | 0.00 | 0.00 | 0.00 | 41 | 1003.8 |
| 20260507181137 | 55 | 353 | 7.0 | 8.7 | 0.00 | 0.00 | 0.00 | 41 | 1003.9 |
| 20260507180633 | 57 | 357 | 7.8 | 13.0 | 0.00 | 0.00 | 0.00 | 42 | 1003.7 |
| 20260507180130 | 56 | 347 | 7.0 | 20.0 | 0.00 | 0.00 | 0.00 | 41 | 1003.8 |
| 20260507175626 | 58 | 333 | 11.3 | 13.9 | 0.00 | 0.00 | 0.00 | 42 | 1004.1 |
| 20260507175124 | 56 | 292 | 8.7 | 12.2 | 0.00 | 0.00 | 0.00 | 41 | 1003.8 |
| 20260507174620 | 57 | 353 | 6.1 | 15.6 | 0.00 | 0.00 | 0.00 | 42 | 1003.8 |
| 20260507174119 | 56 | 3 | 2.6 | 7.8 | 0.00 | 0.00 | 0.00 | 42 | 1003.9 |
| 20260507173615 | 56 | 14 | 13.0 | 18.2 | 0.00 | 0.00 | 0.00 | 43 | 1003.9 |
| 20260507173112 | 56 | 355 | 6.1 | 7.8 | 0.00 | 0.00 | 0.00 | 42 | 1003.9 |
| 20260507172608 | 55 | 358 | 4.3 | 13.0 | 0.00 | 0.00 | 0.00 | 42 | 1004.0 |
| 20260507172106 | 55 | 73 | 1.7 | 6.1 | 0.00 | 0.00 | 0.00 | 44 | 1004.2 |
| 20260507171601 | 55 | 45 | 5.2 | 8.7 | 0.00 | 0.00 | 0.00 | 42 | 1004.2 |
| 20260507171058 | 55 | 29 | 5.2 | 9.6 | 0.00 | 0.00 | 0.00 | 44 | 1004.3 |
| 20260507170555 | 55 | 351 | 6.1 | 7.8 | 0.00 | 0.00 | 0.00 | 49 | 1004.2 |
| 20260507170052 | 55 | 0 | 6.1 | 13.0 | 0.00 | 0.00 | 0.00 | 50 | 1004.1 |
| 20260507165547 | 55 | 358 | 7.8 | 12.2 | 0.00 | 0.00 | 0.00 | 48 | 1004.3 |
| 20260507165044 | 55 | 44 | 5.2 | 7.8 | 0.00 | 0.00 | 0.00 | 47 | 1004.3 |
| 20260507164540 | 55 | 11 | 6.1 | 14.8 | 0.00 | 0.00 | 0.00 | 49 | 1004.3 |
| 20260507164037 | 56 | 358 | 6.1 | 11.3 | 0.00 | 0.00 | 0.00 | 48 | 1004.4 |
| 20260507163535 | 55 | 307 | 4.3 | 13.9 | 0.00 | 0.00 | 0.00 | 48 | 1004.6 |
| 20260507163032 | 57 | 35 | 4.3 | 7.8 | 0.00 | 0.00 | 0.00 | 47 | 1004.5 |
| 20260507162527 | 54 | 3 | 1.7 | 7.0 | 0.00 | 0.00 | 0.00 | 47 | 1004.6 |
| 20260507162024 | 54 | 6 | 7.8 | 14.8 | 0.00 | 0.00 | 0.00 | 48 | 1004.7 |
| 20260507161520 | 54 | 352 | 7.8 | 17.4 | 0.00 | 0.00 | 0.00 | 46 | 1004.8 |
| 20260507161018 | 55 | 350 | 5.2 | 18.2 | 0.00 | 0.00 | 0.00 | 47 | 1004.8 |
| 20260507160513 | 55 | 336 | 13.0 | 17.4 | 0.00 | 0.00 | 0.00 | 44 | 1005.1 |
| 20260507160010 | 55 | 333 | 11.3 | 23.5 | 0.00 | 0.00 | 0.00 | 46 | 1005.1 |
| 20260507155505 | 54 | 346 | 5.2 | 13.9 | 0.00 | 0.00 | 0.00 | 47 | 1005.1 |
| 20260507155003 | 54 | 42 | 2.6 | 7.8 | 0.00 | 0.00 | 0.00 | 54 | 1005.1 |
| 20260507154459 | 54 | 321 | 16.5 | 19.1 | 0.00 | 0.00 | 0.00 | 54 | 1005.2 |
| 20260507153956 | 55 | 47 | 2.6 | 11.3 | 0.00 | 0.00 | 0.00 | 56 | 1005.3 |
| 20260507153453 | 53 | 332 | 6.1 | 8.7 | 0.00 | 0.00 | 0.00 | 61 | 1005.4 |
| 20260507152949 | 54 | 308 | 0.9 | 1.7 | 0.00 | 0.00 | 0.00 | 57 | 1005.2 |
| 20260507152445 | 52 | 312 | 2.6 | 6.1 | 0.00 | 0.00 | 0.00 | 67 | 1005.4 |
| 20260507151941 | 51 | 302 | 6.1 | 11.3 | 0.00 | 0.00 | 0.00 | 68 | 1005.5 |
| 20260507151438 | 51 | 334 | 7.8 | 12.2 | 0.00 | 0.00 | 0.00 | 70 | 1005.6 |
| 20260507150935 | 49 | 335 | 2.6 | 5.2 | 0.00 | 0.00 | 0.00 | 78 | 1005.7 |
| 20260507150432 | 49 | 335 | 7.8 | 9.6 | 0.00 | 0.00 | 0.00 | 77 | 1005.8 |
| 20260507145928 | 49 | 335 | 4.3 | 7.8 | 0.00 | 0.00 | 0.00 | 77 | 1005.5 |
| 20260507145424 | 50 | 349 | 7.0 | 8.7 | 0.00 | 0.00 | 0.00 | 75 | 1005.7 |
| 20260507144921 | 51 | 329 | 6.1 | 8.7 | 0.00 | 0.00 | 0.00 | 73 | 1005.8 |
| 20260507144418 | 50 | 319 | 5.2 | 8.7 | 0.00 | 0.00 | 0.00 | 73 | 1005.6 |
| 20260507143915 | 50 | 3 | 7.0 | 11.3 | 0.00 | 0.00 | 0.00 | 73 | 1005.7 |
| 20260507143412 | 50 | 341 | 7.8 | 13.0 | 0.00 | 0.00 | 0.00 | 73 | 1005.6 |
| 20260507142909 | 50 | 322 | 13.9 | 17.4 | 0.00 | 0.00 | 0.00 | 73 | 1005.6 |
| 20260507142404 | 50 | 345 | 7.8 | 13.0 | 0.00 | 0.00 | 0.00 | 74 | 1005.3 |
| 20260507141902 | 50 | 336 | 7.0 | 8.7 | 0.00 | 0.00 | 0.00 | 74 | 1005.3 |
| 20260507141358 | 50 | 334 | 7.0 | 11.3 | 0.00 | 0.00 | 0.00 | 75 | 1005.5 |
| 20260507140855 | 50 | 328 | 7.8 | 9.6 | 0.00 | 0.00 | 0.00 | 75 | 1005.4 |
| 20260507140351 | 50 | 331 | 6.1 | 7.0 | 0.00 | 0.00 | 0.00 | 73 | 1005.7 |
| 20260507135849 | 51 | 323 | 6.1 | 9.6 | 0.00 | 0.00 | 0.00 | 71 | 1005.6 |
| 20260507135346 | 51 | 275 | 4.3 | 6.1 | 0.00 | 0.00 | 0.00 | 72 | 1005.3 |
| 20260507134843 | 52 | 274 | 6.1 | 7.0 | 0.00 | 0.00 | 0.00 | 74 | 1005.3 |
| 20260507134339 | 51 | 349 | 6.1 | 7.0 | 0.00 | 0.00 | 0.00 | 75 | 1005.5 |
| 20260507133835 | 50 | 329 | 5.2 | 7.8 | 0.00 | 0.00 | 0.00 | 76 | 1005.6 |
| 20260507133331 | 50 | 325 | 7.8 | 8.7 | 0.00 | 0.00 | 0.00 | 75 | 1005.7 |
| 20260507132830 | 50 | 325 | 5.2 | 7.8 | 0.00 | 0.00 | 0.00 | 75 | 1005.7 |
| 20260507132326 | 50 | 325 | 5.2 | 7.8 | 0.00 | 0.00 | 0.00 | 77 | 1005.6 |
| 20260507131823 | 51 | 39 | 6.1 | 7.0 | 0.00 | 0.00 | 0.00 | 77 | 1005.8 |
| 20260507131320 | 50 | 39 | 2.6 | 4.3 | 0.00 | 0.00 | 0.00 | 76 | 1005.5 |
| 20260507130816 | 50 | 39 | 3.5 | 5.2 | 0.00 | 0.00 | 0.00 | 75 | 1005.6 |
| 20260507130313 | 49 | 71 | 2.6 | 6.1 | 0.00 | 0.00 | 0.00 | 77 | 1006.0 |
| 20260507125812 | 50 | 36 | 0.0 | 1.7 | 0.00 | 0.00 | 0.00 | 78 | 1005.9 |
| 20260507125306 | 52 | 68 | 2.6 | 5.2 | 0.00 | 0.00 | 0.00 | 73 | 1005.7 |
| 20260507124801 | 53 | 59 | 0.9 | 1.7 | 0.00 | 0.00 | 0.00 | 73 | 1005.5 |
| 20260507124257 | 50 | 22 | 0.9 | 1.7 | 0.00 | 0.00 | 0.00 | 78 | 1005.6 |
| 20260507123756 | 50 | 22 | 0.9 | 1.7 | 0.00 | 0.00 | 0.00 | 77 | 1005.4 |
| 20260507123253 | 48 | 18 | 0.9 | 0.9 | 0.00 | 0.00 | 0.00 | 79 | 1005.4 |
| 20260507122748 | 49 | 17 | 0.9 | 1.7 | 0.00 | 0.00 | 0.00 | 79 | 1005.6 |
| 20260507122244 | 51 | 18 | 0.9 | 0.9 | 0.00 | 0.00 | 0.00 | 77 | 1005.4 |
| 20260507121740 | 50 | 18 | 0.0 | 1.7 | 0.00 | 0.00 | 0.00 | 76 | 1005.6 |
| 20260507121236 | 47 | 18 | 0.0 | 0.0 | 0.00 | 0.00 | 0.00 | 90 | 1005.8 |
| 20260507120732 | 45 | 18 | 0.9 | 0.9 | 0.00 | 0.00 | 0.00 | 92 | 1005.9 |
| 20260507120230 | 45 | 18 | 0.9 | 1.7 | 0.00 | 0.00 | 0.00 | 93 | 1005.9 |
| 20260507115726 | 45 | 18 | 0.9 | 0.9 | 0.00 | 0.00 | 0.00 | 95 | 1005.7 |
| 20260507115221 | 45 | 19 | 0.0 | 0.0 | 0.00 | 0.00 | 0.00 | 95 | 1006.0 |
| 20260507114716 | 44 | 18 | 0.0 | 0.9 | 0.00 | 0.00 | 0.00 | 95 | 1005.9 |
| 20260507114215 | 45 | 18 | 0.0 | 0.9 | 0.00 | 0.00 | 0.00 | 93 | 1005.8 |
| 20260507113711 | 45 | 18 | 0.0 | 0.9 | 0.00 | 0.00 | 0.00 | 94 | 1005.9 |
| 20260507113209 | 46 | 18 | 0.0 | 1.7 | 0.00 | 0.00 | 0.00 | 97 | 1005.7 |
| 20260507112706 | 44 | 18 | 0.0 | 0.9 | 0.00 | 0.00 | 0.00 | 99 | 1006.0 |
| 20260507112203 | 43 | 18 | 0.9 | 1.7 | 0.00 | 0.00 | 0.00 | 99 | 1005.7 |
| 20260507111701 | 41 | 18 | 0.9 | 1.7 | 0.00 | 0.00 | 0.00 | 99 | 1005.8 |
| 20260507111157 | 41 | 18 | 0.9 | 1.7 | 0.00 | 0.00 | 0.00 | 99 | 1005.9 |
| 20260507110653 | 40 | 19 | 0.0 | 1.7 | 0.00 | 0.00 | 0.00 | 99 | 1005.9 |
| 20260507110150 | 41 | 19 | 0.0 | 0.0 | 0.00 | 0.00 | 0.00 | 99 | 1005.7 |
| 20260507105647 | 40 | 19 | 0.9 | 0.9 | 0.00 | 0.00 | 0.00 | 99 | 1005.9 |
| 20260507105142 | 39 | 19 | 0.9 | 0.9 | 0.00 | 0.00 | 0.00 | 99 | 1005.8 |
| 20260507104640 | 40 | 19 | 0.9 | 1.7 | 0.00 | 0.00 | 0.00 | 99 | 1006.0 |
| 20260507104136 | 39 | 19 | 1.7 | 2.6 | 0.00 | 0.00 | 0.00 | 99 | 1005.9 |
| 20260507103632 | 39 | 19 | 1.7 | 1.7 | 0.00 | 0.00 | 0.00 | 99 | 1005.7 |
| 20260507103130 | 38 | 19 | 0.0 | 0.9 | 0.00 | 0.00 | 0.00 | 99 | 1005.6 |
| 20260507102626 | 38 | 19 | 0.9 | 0.9 | 0.00 | 0.00 | 0.00 | 99 | 1005.4 |
| 20260507102122 | 39 | 19 | 0.9 | 0.9 | 0.00 | 0.00 | 0.00 | 99 | 1005.5 |
| 20260507101618 | 38 | 19 | 0.0 | 1.7 | 0.00 | 0.00 | 0.00 | 99 | 1005.8 |
| 20260507101114 | 38 | 19 | 0.9 | 0.9 | 0.00 | 0.00 | 0.00 | 99 | 1005.6 |
| 20260507100612 | 38 | 19 | 0.0 | 0.0 | 0.00 | 0.00 | 0.00 | 99 | 1005.7 |
| 20260507100110 | 38 | 19 | 0.9 | 0.9 | 0.00 | 0.00 | 0.00 | 99 | 1005.6 |
| 20260507095607 | 38 | 19 | 0.0 | 0.9 | 0.00 | 0.00 | 0.00 | 99 | 1005.2 |
| 20260507095104 | 38 | 19 | 1.7 | 1.7 | 0.00 | 0.00 | 0.00 | 99 | 1005.6 |
| 20260507094600 | 38 | 19 | 0.0 | 0.0 | 0.00 | 0.00 | 0.00 | 99 | 1005.6 |
| 20260507094057 | 38 | 19 | 0.9 | 0.9 | 0.00 | 0.00 | 0.00 | 99 | 1005.7 |
| 20260507093554 | 38 | 19 | 0.9 | 0.9 | 0.00 | 0.00 | 0.00 | 99 | 1005.8 |
| 20260507093053 | 38 | 19 | 0.9 | 0.9 | 0.00 | 0.00 | 0.00 | 99 | 1005.7 |
| 20260507092549 | 39 | 19 | 0.0 | 0.0 | 0.00 | 0.00 | 0.00 | 99 | 1005.6 |
| 20260507092040 | 39 | 19 | 0.0 | 0.0 | 0.00 | 0.00 | 0.00 | 99 | 1005.5 |
| 20260507091537 | 39 | 19 | 0.9 | 0.9 | 0.00 | 0.00 | 0.00 | 99 | 1005.6 |
| 20260507091033 | 39 | 19 | 0.0 | 0.0 | 0.00 | 0.00 | 0.00 | 99 | 1005.4 |
| 20260507090529 | 39 | 19 | 0.9 | 0.9 | 0.00 | 0.00 | 0.00 | 99 | 1005.5 |
| 20260507090026 | 40 | 19 | 0.9 | 0.9 | 0.00 | 0.00 | 0.00 | 99 | 1005.5 |
| 20260507085523 | 41 | 19 | 0.0 | 0.9 | 0.00 | 0.00 | 0.00 | 99 | 1005.8 |
| 20260507085020 | 41 | 19 | 0.9 | 0.9 | 0.00 | 0.00 | 0.00 | 99 | 1005.3 |
| 20260507084516 | 40 | 19 | 0.0 | 0.9 | 0.00 | 0.00 | 0.00 | 99 | 1005.6 |
| 20260507084014 | 41 | 19 | 0.9 | 1.7 | 0.00 | 0.00 | 0.00 | 99 | 1005.2 |
| 20260507083510 | 41 | 19 | 0.9 | 1.7 | 0.00 | 0.00 | 0.00 | 99 | 1005.2 |
| 20260507083007 | 41 | 19 | 1.7 | 1.7 | 0.00 | 0.00 | 0.00 | 99 | 1005.5 |
| 20260507082503 | 41 | 19 | 0.0 | 0.9 | 0.00 | 0.00 | 0.00 | 99 | 1005.4 |
| 20260507081959 | 42 | 19 | 0.9 | 1.7 | 0.00 | 0.00 | 0.00 | 99 | 1005.3 |
| 20260507081455 | 42 | 19 | 0.9 | 0.9 | 0.00 | 0.00 | 0.00 | 99 | 1005.4 |
| 20260507080953 | 42 | 19 | 1.7 | 1.7 | 0.00 | 0.00 | 0.00 | 99 | 1005.3 |
| 20260507080448 | 43 | 19 | 0.9 | 1.7 | 0.00 | 0.00 | 0.00 | 99 | 1005.2 |
| 20260507075944 | 43 | 19 | 0.0 | 0.0 | 0.00 | 0.00 | 0.00 | 98 | 1005.4 |
| 20260507075441 | 44 | 19 | 0.0 | 0.9 | 0.00 | 0.00 | 0.00 | 97 | 1005.3 |
| 20260507074937 | 44 | 19 | 0.9 | 1.7 | 0.00 | 0.00 | 0.00 | 95 | 1005.1 |
| 20260507074434 | 44 | 19 | 0.9 | 1.7 | 0.00 | 0.00 | 0.00 | 95 | 1004.8 |
| 20260507073932 | 44 | 19 | 0.9 | 1.7 | 0.00 | 0.00 | 0.00 | 95 | 1004.6 |
| 20260507073428 | 45 | 19 | 0.0 | 0.9 | 0.00 | 0.00 | 0.00 | 95 | 1004.4 |
| 20260507072925 | 44 | 19 | 0.0 | 0.9 | 0.00 | 0.00 | 0.00 | 95 | 1004.5 |
| 20260507072422 | 44 | 19 | 0.9 | 1.7 | 0.00 | 0.00 | 0.00 | 96 | 1004.7 |
| 20260507071914 | 45 | 19 | 0.9 | 2.6 | 0.00 | 0.00 | 0.00 | 96 | 1004.6 |
| 20260507071410 | 45 | 19 | 0.9 | 1.7 | 0.00 | 0.00 | 0.00 | 95 | 1004.3 |
| 20260507070901 | 45 | 19 | 0.9 | 2.6 | 0.00 | 0.00 | 0.00 | 93 | 1004.5 |
| 20260507070359 | 45 | 19 | 3.5 | 5.2 | 0.00 | 0.00 | 0.00 | 93 | 1004.6 |
| 20260507065856 | 45 | 19 | 3.5 | 5.2 | 0.00 | 0.00 | 0.00 | 93 | 1004.6 |
| 20260507065352 | 46 | 19 | 2.6 | 2.6 | 0.00 | 0.00 | 0.00 | 92 | 1004.8 |
| 20260507064849 | 46 | 19 | 1.7 | 1.7 | 0.00 | 0.00 | 0.00 | 93 | 1004.8 |
| 20260507064348 | 46 | 19 | 1.7 | 1.7 | 0.00 | 0.00 | 0.00 | 93 | 1005.1 |
| 20260507063845 | 46 | 19 | 1.7 | 1.7 | 0.00 | 0.00 | 0.00 | 93 | 1004.8 |
| 20260507063342 | 46 | 20 | 2.6 | 2.6 | 0.00 | 0.00 | 0.00 | 93 | 1005.0 |
| 20260507062839 | 46 | 52 | 0.9 | 4.3 | 0.00 | 0.00 | 0.00 | 94 | 1004.6 |
| 20260507062335 | 46 | 49 | 1.7 | 4.3 | 0.00 | 0.00 | 0.00 | 94 | 1004.4 |
| 20260507061834 | 45 | 0 | 0.0 | 4.3 | 0.00 | 0.00 | 0.00 | 95 | 1004.6 |
| 20260507061331 | 45 | 0 | 0.0 | 0.9 | 0.00 | 0.00 | 0.00 | 96 | 1004.8 |
| 20260507060830 | 45 | 0 | 0.0 | 0.9 | 0.00 | 0.00 | 0.00 | 95 | 1004.7 |
| 20260507060326 | 45 | 0 | 1.7 | 1.7 | 0.00 | 0.00 | 0.00 | 95 | 1005.1 |
| 20260507055823 | 45 | 1 | 0.0 | 1.7 | 0.00 | 0.00 | 0.00 | 95 | 1004.7 |
| 20260507055318 | 45 | 0 | 1.7 | 1.7 | 0.00 | 0.00 | 0.00 | 95 | 1004.7 |
| 20260507054815 | 45 | 0 | 0.9 | 1.7 | 0.00 | 0.00 | 0.00 | 95 | 1004.5 |
| 20260507054311 | 45 | 1 | 0.0 | 0.9 | 0.00 | 0.00 | 0.00 | 95 | 1004.8 |
| 20260507053808 | 46 | 0 | 1.7 | 4.3 | 0.00 | 0.00 | 0.00 | 94 | 1004.6 |
| 20260507053306 | 46 | 1 | 1.7 | 2.6 | 0.00 | 0.00 | 0.00 | 94 | 1005.0 |
| 20260507052805 | 46 | 0 | 2.6 | 5.2 | 0.00 | 0.00 | 0.00 | 94 | 1004.7 |
| 20260507052301 | 46 | 0 | 4.3 | 5.2 | 0.00 | 0.00 | 0.00 | 94 | 1004.8 |
| 20260507051759 | 46 | 0 | 3.5 | 7.8 | 0.00 | 0.00 | 0.00 | 95 | 1004.5 |
| 20260507051256 | 46 | 1 | 4.3 | 6.1 | 0.00 | 0.00 | 0.00 | 94 | 1004.5 |
| 20260507050753 | 46 | 1 | 3.5 | 5.2 | 0.00 | 0.00 | 0.00 | 96 | 1004.6 |
| 20260507050249 | 46 | 1 | 2.6 | 4.3 | 0.00 | 0.00 | 0.00 | 96 | 1004.5 |
| 20260507045746 | 46 | 1 | 4.3 | 5.2 | 0.00 | 0.00 | 0.00 | 95 | 1004.4 |
| 20260507045242 | 45 | 1 | 5.2 | 6.1 | 0.00 | 0.00 | 0.00 | 96 | 1004.5 |
| 20260507044740 | 46 | 1 | 0.9 | 1.7 | 0.00 | 0.00 | 0.00 | 96 | 1004.5 |
| 20260507044236 | 46 | 1 | 0.9 | 1.7 | 0.00 | 0.00 | 0.00 | 96 | 1004.4 |
| 20260507043732 | 46 | 1 | 0.0 | 0.9 | 0.00 | 0.00 | 0.00 | 95 | 1004.3 |
| 20260507043229 | 46 | 1 | 0.0 | 1.7 | 0.00 | 0.00 | 0.00 | 95 | 1003.9 |
| 20260507042725 | 46 | 1 | 0.9 | 0.9 | 0.00 | 0.00 | 0.00 | 95 | 1003.6 |
| 20260507042220 | 46 | 1 | 2.6 | 7.0 | 0.00 | 0.00 | 0.00 | 94 | 1003.8 |
| 20260507041718 | 46 | 1 | 5.2 | 6.1 | 0.00 | 0.00 | 0.00 | 95 | 1003.7 |
| 20260507041214 | 46 | 1 | 4.3 | 7.8 | 0.00 | 0.00 | 0.00 | 94 | 1004.0 |
| 20260507040712 | 47 | 1 | 7.8 | 9.6 | 0.00 | 0.00 | 0.00 | 93 | 1004.4 |
| 20260507040207 | 46 | 2 | 6.1 | 9.6 | 0.00 | 0.00 | 0.00 | 95 | 1004.4 |
| 20260507035704 | 46 | 7 | 5.2 | 8.7 | 0.00 | 0.85 | 0.85 | 96 | 1004.5 |
| 20260507035159 | 46 | 7 | 5.2 | 7.8 | 0.00 | 0.85 | 0.85 | 95 | 1004.6 |
| 20260507034656 | 46 | 7 | 4.3 | 7.0 | 0.00 | 0.85 | 0.85 | 96 | 1004.7 |
| 20260507034154 | 46 | 7 | 6.1 | 7.8 | 0.00 | 0.85 | 0.85 | 96 | 1004.6 |
| 20260507033653 | 46 | 7 | 5.2 | 7.0 | 0.00 | 0.85 | 0.85 | 96 | 1004.6 |
| 20260507033149 | 46 | 6 | 6.1 | 7.0 | 0.00 | 0.85 | 0.85 | 95 | 1004.6 |
| 20260507032647 | 47 | 6 | 8.7 | 12.2 | 0.00 | 0.85 | 0.85 | 94 | 1004.4 |
| 20260507032142 | 47 | 2 | 9.6 | 19.1 | 0.00 | 0.85 | 0.85 | 93 | 1004.4 |
| 20260507031639 | 46 | 56 | 5.2 | 11.3 | 0.00 | 0.85 | 0.85 | 94 | 1004.5 |
| 20260507031136 | 47 | 60 | 3.5 | 6.1 | 0.07 | 0.85 | 0.85 | 95 | 1004.6 |
| 20260507030633 | 47 | 212 | 1.7 | 7.0 | 0.00 | 0.84 | 0.84 | 94 | 1004.7 |
| 20260507030131 | 47 | 212 | 2.6 | 9.6 | 0.00 | 0.84 | 0.84 | 95 | 1004.6 |
| 20260507025628 | 47 | 212 | 2.6 | 4.3 | 0.00 | 0.84 | 0.84 | 95 | 1004.9 |
| 20260507025124 | 47 | 212 | 4.3 | 6.1 | 0.00 | 0.84 | 0.84 | 97 | 1004.7 |
| 20260507024622 | 48 | 212 | 0.9 | 1.7 | 0.00 | 0.84 | 0.84 | 96 | 1004.8 |
| 20260507024119 | 48 | 212 | 2.6 | 4.3 | 0.00 | 0.84 | 0.84 | 96 | 1004.8 |
| 20260507023615 | 48 | 212 | 4.3 | 6.1 | 0.00 | 0.84 | 0.84 | 97 | 1004.6 |
| 20260507023113 | 48 | 212 | 3.5 | 11.3 | 0.00 | 0.84 | 0.84 | 96 | 1004.6 |
| 20260507022609 | 48 | 227 | 0.9 | 1.7 | 0.00 | 0.84 | 0.84 | 98 | 1004.6 |
| 20260507022105 | 49 | 221 | 2.6 | 2.6 | 0.00 | 0.84 | 0.84 | 99 | 1004.5 |
| 20260507021601 | 49 | 227 | 0.9 | 4.3 | 0.00 | 0.84 | 0.84 | 99 | 1004.6 |
| 20260507021057 | 49 | 219 | 0.9 | 4.3 | 0.05 | 0.84 | 0.84 | 99 | 1004.3 |
| 20260507020556 | 49 | 243 | 1.7 | 1.7 | 0.05 | 0.84 | 0.84 | 99 | 1004.4 |
| 20260507020051 | 49 | 243 | 0.9 | 0.9 | 0.07 | 0.83 | 0.83 | 99 | 1004.3 |
| 20260507015550 | 49 | 243 | 1.7 | 1.7 | 0.00 | 0.82 | 0.82 | 99 | 1004.4 |
| 20260507015047 | 50 | 243 | 0.9 | 1.7 | 0.00 | 0.82 | 0.82 | 99 | 1004.4 |
| 20260507014543 | 50 | 243 | 0.0 | 2.6 | 0.05 | 0.82 | 0.82 | 99 | 1004.4 |
| 20260507014033 | 50 | 243 | 0.0 | 0.0 | 0.07 | 0.81 | 0.81 | 99 | 1004.0 |
| 20260507013530 | 50 | 243 | 0.0 | 0.9 | 0.07 | 0.81 | 0.81 | 99 | 1003.9 |
| 20260507013027 | 51 | 243 | 0.9 | 1.7 | 0.07 | 0.80 | 0.80 | 99 | 1003.9 |
| 20260507012525 | 51 | 243 | 0.9 | 1.7 | 0.07 | 0.80 | 0.80 | 99 | 1003.9 |
| 20260507012021 | 51 | 243 | 0.9 | 0.9 | 0.00 | 0.79 | 0.79 | 99 | 1004.0 |
| 20260507011518 | 51 | 243 | 0.0 | 0.0 | 0.00 | 0.79 | 0.79 | 99 | 1003.8 |
| 20260507011008 | 51 | 243 | 0.0 | 0.9 | 0.05 | 0.79 | 0.79 | 98 | 1003.8 |
| 20260507010503 | 52 | 243 | 2.6 | 2.6 | 0.05 | 0.79 | 0.79 | 97 | 1003.6 |
| 20260507005959 | 52 | 243 | 1.7 | 2.6 | 0.00 | 0.78 | 0.78 | 97 | 1003.8 |
| 20260507005456 | 52 | 244 | 0.9 | 1.7 | 0.00 | 0.78 | 0.78 | 97 | 1003.7 |
| 20260507004947 | 52 | 244 | 2.6 | 4.3 | 0.00 | 0.78 | 0.78 | 98 | 1003.7 |
| 20260507004444 | 52 | 244 | 1.7 | 1.7 | 0.00 | 0.78 | 0.78 | 97 | 1003.4 |
| 20260507003942 | 52 | 243 | 3.5 | 4.3 | 0.00 | 0.78 | 0.78 | 98 | 1003.3 |
| 20260507003437 | 52 | 244 | 0.0 | 0.9 | 0.00 | 0.78 | 0.78 | 99 | 1003.2 |
| 20260507002932 | 53 | 244 | 0.9 | 1.7 | 0.00 | 0.78 | 0.78 | 99 | 1003.4 |
| 20260507002429 | 53 | 244 | 0.9 | 0.9 | 0.00 | 0.78 | 0.78 | 98 | 1003.3 |
| 20260507001926 | 53 | 244 | 0.9 | 2.6 | 0.00 | 0.78 | 0.78 | 98 | 1003.0 |
| 20260507001422 | 53 | 244 | 2.6 | 2.6 | 0.00 | 0.78 | 0.78 | 99 | 1002.7 |
| 20260507000920 | 53 | 244 | 0.0 | 2.6 | 0.00 | 0.78 | 0.78 | 99 | 1002.7 |
| 20260507000415 | 53 | 243 | 0.0 | 1.7 | 0.00 | 0.78 | 0.78 | 99 | 1002.7 |
| 20260506235911 | 53 | 243 | 0.0 | 1.7 | 0.00 | 0.78 | 0.78 | 99 | 1002.5 |
| 20260506235409 | 54 | 244 | 0.9 | 2.6 | 0.00 | 0.78 | 0.78 | 99 | 1002.6 |
| 20260506234904 | 54 | 244 | 0.9 | 2.6 | 0.00 | 0.78 | 0.78 | 99 | 1002.3 |
| 20260506234403 | 54 | 244 | 0.9 | 0.9 | 0.00 | 0.78 | 0.78 | 99 | 1002.4 |
| 20260506233900 | 54 | 244 | 1.7 | 1.7 | 0.00 | 0.78 | 0.78 | 99 | 1002.6 |
| 20260506233355 | 54 | 244 | 2.6 | 4.3 | 0.00 | 0.78 | 0.78 | 99 | 1002.3 |
| 20260506232852 | 55 | 244 | 2.6 | 5.2 | 0.00 | 0.78 | 0.78 | 98 | 1002.4 |
| 20260506232348 | 55 | 244 | 3.5 | 7.0 | 0.00 | 0.78 | 0.78 | 98 | 1002.2 |
| 20260506231844 | 55 | 244 | 4.3 | 7.8 | 0.00 | 0.78 | 0.78 | 98 | 1002.3 |
| 20260506231343 | 55 | 244 | 5.2 | 7.0 | 0.00 | 0.78 | 0.78 | 99 | 1002.2 |
| 20260506230840 | 56 | 244 | 4.3 | 5.2 | 0.00 | 0.78 | 0.78 | 99 | 1002.0 |
| 20260506230336 | 57 | 244 | 4.3 | 6.1 | 0.00 | 0.78 | 0.78 | 99 | 1002.0 |
| 20260506225832 | 57 | 244 | 4.3 | 5.2 | 0.00 | 0.78 | 0.78 | 99 | 1001.8 |
| 20260506225330 | 57 | 244 | 1.7 | 1.7 | 0.00 | 0.78 | 0.78 | 99 | 1001.7 |
| 20260506224826 | 58 | 244 | 0.0 | 0.0 | 0.00 | 0.78 | 0.78 | 99 | 1001.7 |
| 20260506224323 | 58 | 244 | 1.7 | 1.7 | 0.00 | 0.78 | 0.78 | 99 | 1001.8 |
| 20260506223820 | 58 | 244 | 2.6 | 4.3 | 0.00 | 0.78 | 0.78 | 99 | 1001.8 |
| 20260506223315 | 58 | 244 | 3.5 | 4.3 | 0.12 | 0.78 | 0.78 | 99 | 1001.7 |
| 20260506222813 | 59 | 243 | 2.6 | 2.6 | 0.59 | 0.78 | 0.78 | 99 | 1001.5 |
| 20260506222308 | 59 | 244 | 4.3 | 4.3 | 0.42 | 0.71 | 0.71 | 99 | 1001.7 |
| 20260506221806 | 60 | 244 | 0.9 | 0.9 | 0.35 | 0.66 | 0.66 | 99 | 1001.5 |
| 20260506221303 | 60 | 244 | 0.9 | 1.7 | 0.35 | 0.63 | 0.63 | 99 | 1001.4 |
| 20260506220801 | 60 | 244 | 2.6 | 5.2 | 0.28 | 0.60 | 0.60 | 99 | 1001.4 |
| 20260506220255 | 60 | 244 | 0.9 | 1.7 | 0.19 | 0.57 | 0.57 | 99 | 1001.4 |
| 20260506215752 | 60 | 244 | 0.9 | 2.6 | 0.14 | 0.56 | 0.56 | 99 | 1001.3 |
| 20260506215248 | 60 | 244 | 2.6 | 2.6 | 0.12 | 0.54 | 0.54 | 99 | 1001.4 |
| 20260506214744 | 60 | 244 | 0.0 | 2.6 | 0.12 | 0.53 | 0.53 | 99 | 1001.5 |
| 20260506214242 | 60 | 244 | 0.9 | 1.7 | 0.12 | 0.52 | 0.52 | 99 | 1001.6 |
| 20260506213740 | 60 | 243 | 0.9 | 1.7 | 0.17 | 0.51 | 0.51 | 99 | 1001.6 |
| 20260506213231 | 60 | 244 | 0.0 | 0.9 | 0.31 | 0.50 | 0.50 | 99 | 1001.5 |
| 20260506212728 | 60 | 244 | 0.9 | 0.9 | 0.17 | 0.47 | 0.47 | 99 | 1001.8 |
| 20260506212223 | 60 | 244 | 0.9 | 1.7 | 0.12 | 0.45 | 0.45 | 99 | 1001.7 |
| 20260506211714 | 60 | 244 | 0.0 | 1.7 | 0.14 | 0.45 | 0.45 | 99 | 1001.7 |
| 20260506211210 | 60 | 244 | 0.9 | 2.6 | 0.07 | 0.43 | 0.43 | 99 | 1001.7 |
| 20260506210707 | 60 | 244 | 2.6 | 2.6 | 0.00 | 0.42 | 0.42 | 99 | 1001.7 |
| 20260506210204 | 61 | 243 | 3.5 | 4.3 | 0.00 | 0.42 | 0.42 | 99 | 1001.7 |
| 20260506205701 | 61 | 244 | 0.0 | 1.7 | 0.05 | 0.42 | 0.42 | 99 | 1001.8 |
| 20260506205156 | 61 | 243 | 0.0 | 0.9 | 0.00 | 0.41 | 0.41 | 99 | 1001.8 |
| 20260506204654 | 61 | 243 | 0.0 | 0.9 | 0.07 | 0.41 | 0.41 | 99 | 1001.9 |
| 20260506204151 | 61 | 244 | 0.0 | 0.0 | 0.00 | 0.40 | 0.40 | 99 | 1002.1 |
| 20260506203649 | 60 | 244 | 1.7 | 2.6 | 0.00 | 0.40 | 0.40 | 99 | 1002.0 |
| 20260506203146 | 61 | 244 | 1.7 | 2.6 | 0.05 | 0.40 | 0.40 | 99 | 1002.1 |
| 20260506202644 | 61 | 244 | 0.9 | 2.6 | 0.05 | 0.40 | 0.40 | 99 | 1002.2 |
| 20260506202139 | 61 | 244 | 1.7 | 2.6 | 0.00 | 0.39 | 0.39 | 99 | 1002.3 |
| 20260506201637 | 61 | 244 | 0.9 | 0.9 | 0.00 | 0.39 | 0.39 | 99 | 1002.2 |
| 20260506201133 | 61 | 244 | 0.0 | 0.9 | 0.00 | 0.39 | 0.39 | 99 | 1002.2 |
| 20260506200630 | 60 | 243 | 0.9 | 0.9 | 0.07 | 0.39 | 0.39 | 99 | 1002.2 |
| 20260506200127 | 60 | 244 | 3.5 | 5.2 | 0.07 | 0.39 | 0.39 | 99 | 1002.5 |
| 20260506195623 | 60 | 244 | 0.9 | 4.3 | 0.00 | 0.38 | 0.38 | 99 | 1002.3 |
| 20260506195119 | 60 | 244 | 0.0 | 0.9 | 0.05 | 0.38 | 0.38 | 99 | 1002.4 |
| 20260506194617 | 60 | 244 | 0.0 | 0.9 | 0.00 | 0.37 | 0.37 | 99 | 1002.6 |
| 20260506194113 | 60 | 244 | 0.9 | 0.9 | 0.07 | 0.37 | 0.37 | 99 | 1002.7 |
| 20260506193611 | 60 | 244 | 0.9 | 1.7 | 0.07 | 0.37 | 0.37 | 99 | 1002.6 |
| 20260506193108 | 60 | 244 | 0.0 | 0.9 | 0.05 | 0.36 | 0.36 | 99 | 1002.7 |
| 20260506192605 | 60 | 244 | 0.9 | 1.7 | 0.05 | 0.36 | 0.36 | 99 | 1003.0 |
| 20260506192101 | 60 | 244 | 0.0 | 1.7 | 0.07 | 0.35 | 0.35 | 99 | 1003.1 |
| 20260506191557 | 60 | 244 | 0.9 | 1.7 | 0.07 | 0.35 | 0.35 | 99 | 1003.3 |
| 20260506191053 | 60 | 244 | 3.5 | 5.2 | 0.05 | 0.34 | 0.34 | 99 | 1003.0 |
| 20260506190551 | 60 | 243 | 0.9 | 2.6 | 0.07 | 0.34 | 0.34 | 99 | 1002.7 |
| 20260506190047 | 60 | 244 | 0.0 | 2.6 | 0.12 | 0.32 | 0.32 | 99 | 1003.0 |
| 20260506185544 | 60 | 244 | 2.6 | 2.6 | 0.07 | 0.30 | 0.30 | 99 | 1002.7 |
| 20260506185036 | 60 | 244 | 1.7 | 2.6 | 0.07 | 0.30 | 0.30 | 99 | 1003.0 |
| 20260506184533 | 60 | 243 | 1.7 | 2.6 | 0.05 | 0.29 | 0.29 | 99 | 1002.8 |
| 20260506184030 | 60 | 243 | 0.0 | 1.7 | 0.12 | 0.29 | 0.29 | 99 | 1003.0 |
| 20260506183526 | 60 | 243 | 0.9 | 0.9 | 0.14 | 0.28 | 0.28 | 99 | 1002.8 |
| 20260506183023 | 59 | 244 | 0.9 | 1.7 | 0.12 | 0.27 | 0.27 | 99 | 1003.1 |